Time;durP1;ratioP1;P1;durP2;ratioP2;P2;SDS_P1;SDS_P2;PMS_P1;PMS_P2;Temp;Humidity;BMP_temperature;BMP_pressure;BME280_temperature;BME280_humidity;BME280_pressure;Samples;Min_cycle;Max_cycle;Signal;HPM_P1;HPM_P2
2023/10/11 00:01:03;;;;;;;3.20;2.90;;;;;;;;;;5100027;28;20204;-64
2023/10/11 00:03:33;;;;;;;3.35;2.80;;;;;;;;;;5099989;28;20247;-65
2023/10/11 00:06:04;;;;;;;3.85;3.10;;;;;;;;;;5099979;28;20216;-64
2023/10/11 00:08:40;;;;;;;2.92;2.63;;;;;;;;;;5099689;28;20236;-64
2023/10/11 00:11:08;;;;;;;4.00;2.90;;;;;;;;;;5100230;28;20580;-64
2023/10/11 00:13:36;;;;;;;3.10;2.80;;;;;;;;;;5100261;28;20212;-64
2023/10/11 00:16:08;;;;;;;3.47;2.83;;;;;;;;;;5100034;28;20211;-64
2023/10/11 00:18:36;;;;;;;3.05;2.75;;;;;;;;;;5100120;28;20206;-64
2023/10/11 00:21:10;;;;;;;3.33;2.90;;;;;;;;;;5100277;28;20569;-64
2023/10/11 00:23:41;;;;;;;3.30;2.85;;;;;;;;;;5099707;28;20204;-65
2023/10/11 00:26:08;;;;;;;3.63;2.92;;;;;;;;;;5099734;28;20231;-64
2023/10/11 00:28:38;;;;;;;3.60;2.80;;;;;;;;;;5099236;28;20238;-64
2023/10/11 00:31:12;;;;;;;3.30;3.00;;;;;;;;;;5099450;28;20246;-64
2023/10/11 00:33:39;;;;;;;2.95;2.65;;;;;;;;;;5100076;28;20267;-64
2023/10/11 00:36:08;;;;;;;3.08;2.70;;;;;;;;;;5099591;28;20212;-64
2023/10/11 00:38:46;;;;;;;4.90;2.90;;;;;;;;;;5099478;28;20497;-64
2023/10/11 00:41:17;;;;;;;3.42;2.83;;;;;;;;;;5099292;28;20453;-64
2023/10/11 00:43:47;;;;;;;4.20;2.92;;;;;;;;;;5099400;28;20250;-64
2023/10/11 00:46:15;;;;;;;4.22;3.30;;;;;;;;;;5099586;28;20214;-64
2023/10/11 00:48:53;;;;;;;2.80;2.60;;;;;;;;;;5099285;28;20231;-64
2023/10/11 00:51:23;;;;;;;3.08;2.50;;;;;;;;;;5099496;28;20230;-64
2023/10/11 00:53:51;;;;;;;3.60;3.10;;;;;;;;;;5099216;28;20203;-64
2023/10/11 00:56:21;;;;;;;3.88;3.03;;;;;;;;;;5099458;28;20231;-64
2023/10/11 00:58:51;;;;;;;3.08;2.78;;;;;;;;;;5099386;28;20199;-64
2023/10/11 01:01:22;;;;;;;4.28;3.10;;;;;;;;;;5098878;28;20211;-64
2023/10/11 01:03:51;;;;;;;3.55;2.95;;;;;;;;;;5098276;28;20545;-64
2023/10/11 01:06:19;;;;;;;3.33;3.03;;;;;;;;;;5098328;28;20214;-64
2023/10/11 01:08:48;;;;;;;3.38;2.88;;;;;;;;;;5098406;28;20318;-64
2023/10/11 01:11:16;;;;;;;3.35;2.78;;;;;;;;;;5098676;28;20310;-64
2023/10/11 01:13:50;;;;;;;3.45;3.15;;;;;;;;;;5099413;28;20600;-64
2023/10/11 01:16:20;;;;;;;3.45;3.10;;;;;;;;;;5098778;28;20298;-64
2023/10/11 01:18:48;;;;;;;3.05;2.75;;;;;;;;;;5098541;28;20471;-64
2023/10/11 01:21:17;;;;;;;3.80;3.03;;;;;;;;;;5098067;27;20299;-64
2023/10/11 01:23:45;;;;;;;3.13;2.83;;;;;;;;;;5098725;28;20299;-64
2023/10/11 01:26:12;;;;;;;3.47;2.80;;;;;;;;;;5098430;28;20310;-64
2023/10/11 01:28:41;;;;;;;4.32;3.00;;;;;;;;;;5098785;28;20599;-64
2023/10/11 01:31:10;;;;;;;3.40;3.03;;;;;;;;;;5098366;28;20203;-64
2023/10/11 01:33:40;;;;;;;3.75;3.30;;;;;;;;;;5098292;28;20294;-64
2023/10/11 01:36:08;;;;;;;3.40;3.05;;;;;;;;;;5098195;28;20203;-64
2023/10/11 01:38:46;;;;;;;3.83;2.90;;;;;;;;;;5098881;28;20298;-64
2023/10/11 01:41:15;;;;;;;3.22;2.92;;;;;;;;;;5098571;28;20203;-64
2023/10/11 01:43:45;;;;;;;3.38;3.08;;;;;;;;;;5098477;28;20214;-64
2023/10/11 01:46:14;;;;;;;3.08;2.78;;;;;;;;;;5098351;28;20586;-64
2023/10/11 01:48:42;;;;;;;3.50;3.15;;;;;;;;;;5098379;28;20227;-64
2023/10/11 01:51:10;;;;;;;3.33;3.03;;;;;;;;;;5097773;28;20303;-64
2023/10/11 01:53:39;;;;;;;4.25;3.28;;;;;;;;;;5097771;28;20571;-64
2023/10/11 01:56:07;;;;;;;3.90;3.20;;;;;;;;;;5097892;28;20204;-64
2023/10/11 01:58:37;;;;;;;3.40;3.10;;;;;;;;;;5098086;28;20207;-64
2023/10/11 02:01:07;;;;;;;3.25;2.95;;;;;;;;;;5098338;28;20211;-64
2023/10/11 02:03:39;;;;;;;3.42;2.97;;;;;;;;;;5098074;28;20235;-64
2023/10/11 02:06:07;;;;;;;3.42;3.10;;;;;;;;;;5098057;28;20688;-64
2023/10/11 02:08:36;;;;;;;3.40;2.90;;;;;;;;;;5098032;28;20228;-64
2023/10/11 02:11:06;;;;;;;3.20;2.90;;;;;;;;;;5097805;28;20567;-64
2023/10/11 02:13:38;;;;;;;3.10;2.80;;;;;;;;;;5097987;28;20210;-64
2023/10/11 02:16:11;;;;;;;3.05;2.75;;;;;;;;;;5097862;28;20204;-64
2023/10/11 02:18:39;;;;;;;3.78;2.90;;;;;;;;;;5097844;28;20199;-64
2023/10/11 02:21:06;;;;;;;3.20;2.85;;;;;;;;;;5098045;28;20215;-64
2023/10/11 02:23:39;;;;;;;2.80;2.45;;;;;;;;;;5118180;28;20214;-64
2023/10/11 02:26:12;;;;;;;3.47;2.70;;;;;;;;;;5117110;28;20202;-64
2023/10/11 02:28:40;;;;;;;3.72;3.30;;;;;;;;;;5117015;28;20223;-64
2023/10/11 02:31:08;;;;;;;3.63;2.72;;;;;;;;;;5118010;28;20297;-64
2023/10/11 02:33:36;;;;;;;3.70;2.72;;;;;;;;;;5117987;28;20247;-64
2023/10/11 02:36:08;;;;;;;3.72;2.80;;;;;;;;;;5118068;28;20210;-64
2023/10/11 02:38:39;;;;;;;2.97;2.65;;;;;;;;;;5118154;28;20210;-64
2023/10/11 02:41:09;;;;;;;4.07;2.78;;;;;;;;;;5118073;28;20570;-64
2023/10/11 02:43:48;;;;;;;3.08;2.78;;;;;;;;;;5117867;28;20571;-64
2023/10/11 02:46:15;;;;;;;3.15;2.85;;;;;;;;;;5118077;28;20306;-64
2023/10/11 02:48:46;;;;;;;3.58;2.55;;;;;;;;;;5117640;28;20230;-64
2023/10/11 02:51:16;;;;;;;4.43;2.63;;;;;;;;;;5117636;28;20574;-64
2023/10/11 02:53:44;;;;;;;3.08;2.78;;;;;;;;;;5118070;28;20203;-64
2023/10/11 02:56:15;;;;;;;3.72;2.63;;;;;;;;;;5117702;28;20210;-64
2023/10/11 02:58:43;;;;;;;3.13;2.67;;;;;;;;;;5117965;28;20199;-64
2023/10/11 03:01:16;;;;;;;3.00;2.70;;;;;;;;;;5117908;28;20633;-64
2023/10/11 03:03:44;;;;;;;3.15;2.85;;;;;;;;;;5117409;28;20234;-65
2023/10/11 03:06:12;;;;;;;3.40;2.60;;;;;;;;;;5117567;28;20233;-64
2023/10/11 03:08:40;;;;;;;3.63;2.92;;;;;;;;;;5117710;28;20265;-64
2023/10/11 03:11:15;;;;;;;2.85;2.60;;;;;;;;;;5117246;28;20203;-64
2023/10/11 03:13:44;;;;;;;2.78;2.50;;;;;;;;;;5116962;28;20209;-64
2023/10/11 03:16:13;;;;;;;3.20;2.90;;;;;;;;;;5117370;28;20241;-64
2023/10/11 03:18:45;;;;;;;3.30;3.00;;;;;;;;;;5117325;28;20209;-64
2023/10/11 03:21:17;;;;;;;3.00;2.70;;;;;;;;;;5117164;28;20215;-64
2023/10/11 03:23:47;;;;;;;3.08;2.50;;;;;;;;;;5117573;28;20211;-64
2023/10/11 03:26:18;;;;;;;4.18;2.90;;;;;;;;;;5119137;28;20203;-65
2023/10/11 03:28:57;;;;;;;3.67;3.03;;;;;;;;;;5120922;28;20261;-64
2023/10/11 03:31:27;;;;;;;3.33;2.78;;;;;;;;;;5121008;28;20232;-64
2023/10/11 03:33:56;;;;;;;3.22;2.72;;;;;;;;;;5120685;28;20203;-64
2023/10/11 03:36:28;;;;;;;3.28;2.72;;;;;;;;;;5120454;28;20210;-64
2023/10/11 03:38:57;;;;;;;3.47;2.65;;;;;;;;;;5120650;28;20226;-64
2023/10/11 03:41:28;;;;;;;3.65;2.80;;;;;;;;;;5120229;28;20238;-64
2023/10/11 03:44:09;;;;;;;3.63;2.95;;;;;;;;;;5120574;28;20218;-64
2023/10/11 03:46:38;;;;;;;3.15;2.67;;;;;;;;;;5120708;28;20203;-64
2023/10/11 03:49:37;;;;;;;4.50;3.20;;;;;;;;;;5120648;28;20262;-65
2023/10/11 03:52:05;;;;;;;3.08;2.75;;;;;;;;;;5119444;28;20597;-64
2023/10/11 03:54:36;;;;;;;4.22;2.70;;;;;;;;;;5120422;28;20225;-64
2023/10/11 03:57:05;;;;;;;3.40;2.83;;;;;;;;;;5119383;28;20203;-64
2023/10/11 03:59:38;;;;;;;3.25;2.88;;;;;;;;;;5120085;28;20199;-64
2023/10/11 04:02:10;;;;;;;2.70;2.40;;;;;;;;;;5120293;28;20306;-64
2023/10/11 04:04:42;;;;;;;3.25;2.90;;;;;;;;;;5120324;28;20203;-64
2023/10/11 04:07:12;;;;;;;3.22;2.80;;;;;;;;;;5120187;28;20279;-64
2023/10/11 04:09:44;;;;;;;3.42;2.90;;;;;;;;;;5120255;28;20334;-64
2023/10/11 04:12:12;;;;;;;3.10;2.80;;;;;;;;;;5119886;28;20263;-64
2023/10/11 04:14:44;;;;;;;3.03;2.70;;;;;;;;;;5120039;28;20203;-65
2023/10/11 04:17:25;;;;;;;3.28;2.97;;;;;;;;;;5119605;28;20253;-64
2023/10/11 04:19:54;;;;;;;3.25;2.88;;;;;;;;;;5120126;28;20573;-64
2023/10/11 04:22:25;;;;;;;3.33;2.67;;;;;;;;;;5119325;28;20575;-64
2023/10/11 04:24:54;;;;;;;2.90;2.60;;;;;;;;;;5119514;28;20289;-64
2023/10/11 04:30:23;;;;;;;2.90;2.50;;;;;;;;;;5118545;28;20225;-64
2023/10/11 04:32:56;;;;;;;3.63;2.88;;;;;;;;;;5119417;28;20202;-64
2023/10/11 04:35:25;;;;;;;3.28;2.97;;;;;;;;;;5119422;28;20281;-64
2023/10/11 04:37:54;;;;;;;3.38;2.88;;;;;;;;;;5118995;28;20199;-64
2023/10/11 04:40:35;;;;;;;4.00;2.70;;;;;;;;;;5118893;28;20199;-64
2023/10/11 04:43:08;;;;;;;3.17;2.65;;;;;;;;;;5119476;28;20203;-64
2023/10/11 04:45:45;;;;;;;3.20;2.88;;;;;;;;;;5118607;28;20225;-64
2023/10/11 04:48:17;;;;;;;3.53;2.80;;;;;;;;;;5118904;28;20217;-64
2023/10/11 04:50:47;;;;;;;3.15;2.75;;;;;;;;;;5118629;28;20316;-64
2023/10/11 04:53:18;;;;;;;3.35;2.92;;;;;;;;;;5118667;28;20268;-64
2023/10/11 04:55:58;;;;;;;3.47;2.92;;;;;;;;;;5118109;28;20202;-64
2023/10/11 05:01:22;;;;;;;3.17;2.88;;;;;;;;;;5097004;28;20191;-65
2023/10/11 05:03:58;;;;;;;3.50;2.75;;;;;;;;;;5118582;28;20202;-64
2023/10/11 05:06:31;;;;;;;2.85;2.38;;;;;;;;;;5118505;28;20194;-65
2023/10/11 05:09:12;;;;;;;3.55;2.70;;;;;;;;;;5118197;28;20209;-64
2023/10/11 05:11:43;;;;;;;3.47;2.88;;;;;;;;;;5118529;28;20221;-64
2023/10/11 05:14:30;;;;;;;3.28;2.97;;;;;;;;;;5118325;28;20199;-64
2023/10/11 05:16:59;;;;;;;2.95;2.65;;;;;;;;;;5118425;28;20595;-64
2023/10/11 05:19:28;;;;;;;2.58;2.38;;;;;;;;;;5118181;28;20239;-64
2023/10/11 05:21:55;;;;;;;4.55;3.33;;;;;;;;;;5117647;28;20702;-64
2023/10/11 05:24:44;;;;;;;3.25;2.53;;;;;;;;;;5118245;28;20570;-64
2023/10/11 05:27:25;;;;;;;3.45;2.65;;;;;;;;;;5117992;28;20298;-64
2023/10/11 05:30:07;;;;;;;3.25;2.60;;;;;;;;;;5117847;28;20226;-65
2023/10/11 05:32:41;;;;;;;4.68;2.70;;;;;;;;;;5117431;28;20199;-64
2023/10/11 05:35:24;;;;;;;3.38;2.90;;;;;;;;;;5117209;28;20202;-64
2023/10/11 05:51:40;;;;;;;3.72;2.80;;;;;;;;;;5117287;28;20223;-64
2023/10/11 05:54:09;;;;;;;4.03;2.80;;;;;;;;;;5117086;28;20209;-64
2023/10/11 05:56:39;;;;;;;4.57;2.90;;;;;;;;;;5117253;28;20199;-64
2023/10/11 05:59:09;;;;;;;3.85;2.80;;;;;;;;;;5116809;28;20238;-64
2023/10/11 06:01:37;;;;;;;4.32;2.95;;;;;;;;;;5116411;28;20202;-64
2023/10/11 06:04:08;;;;;;;3.17;2.67;;;;;;;;;;5115786;28;20207;-64
2023/10/11 06:06:39;;;;;;;3.88;2.80;;;;;;;;;;5117355;28;20210;-64
2023/10/11 06:09:16;;;;;;;3.53;2.80;;;;;;;;;;5117078;28;20214;-65
2023/10/11 06:11:48;;;;;;;3.33;2.80;;;;;;;;;;5116586;28;20362;-64
2023/10/11 06:14:16;;;;;;;3.88;2.92;;;;;;;;;;5116598;28;20238;-64
2023/10/11 06:16:49;;;;;;;3.35;3.00;;;;;;;;;;5116454;28;20231;-64
2023/10/11 06:19:18;;;;;;;3.45;2.45;;;;;;;;;;5116619;28;20488;-64
2023/10/11 06:21:58;;;;;;;3.22;2.78;;;;;;;;;;5113793;27;20243;-64
2023/10/11 06:24:30;;;;;;;4.15;2.80;;;;;;;;;;5096307;28;20229;-64
2023/10/11 06:28:09;;;;;;;3.38;2.70;;;;;;;;;;5095954;28;20204;-64
2023/10/11 06:30:05;;;;;;;3.67;2.95;;;;;;;;;;5096190;28;20593;-64
2023/10/11 06:32:35;;;;;;;4.97;2.88;;;;;;;;;;5096016;28;20591;-64
2023/10/11 06:35:05;;;;;;;3.10;2.80;;;;;;;;;;5096001;28;20298;-64
2023/10/11 06:37:36;;;;;;;3.38;3.03;;;;;;;;;;5096280;28;20211;-64
2023/10/11 06:40:13;;;;;;;3.08;2.78;;;;;;;;;;5096118;28;20462;-64
2023/10/11 06:42:42;;;;;;;4.10;3.00;;;;;;;;;;5096245;28;20474;-65
2023/10/11 06:45:16;;;;;;;4.47;3.00;;;;;;;;;;5095442;28;20296;-64
2023/10/11 06:47:49;;;;;;;3.58;3.00;;;;;;;;;;5099225;28;20214;-64
2023/10/11 06:50:24;;;;;;;3.67;2.95;;;;;;;;;;5124943;28;20699;-64
2023/10/11 06:52:53;;;;;;;3.13;2.53;;;;;;;;;;5104023;28;20210;-64
2023/10/11 06:55:25;;;;;;;3.40;2.97;;;;;;;;;;5094668;28;20203;-64
2023/10/11 06:57:55;;;;;;;3.97;2.60;;;;;;;;;;5095091;28;20660;-65
2023/10/11 07:00:23;;;;;;;3.40;2.95;;;;;;;;;;5098235;28;20509;-65
2023/10/11 07:02:52;;;;;;;2.90;2.60;;;;;;;;;;5099562;28;20213;-64
2023/10/11 07:05:25;;;;;;;3.97;2.63;;;;;;;;;;5099837;28;20218;-64
2023/10/11 07:07:53;;;;;;;3.90;2.80;;;;;;;;;;5099466;28;20268;-64
2023/10/11 07:10:32;;;;;;;3.67;2.80;;;;;;;;;;5099052;28;20231;-64
2023/10/11 07:13:06;;;;;;;3.15;2.78;;;;;;;;;;5099441;28;20214;-64
2023/10/11 07:15:38;;;;;;;3.75;2.75;;;;;;;;;;5099673;28;20286;-64
2023/10/11 07:18:08;;;;;;;2.92;2.53;;;;;;;;;;5098671;28;20218;-64
2023/10/11 07:20:58;;;;;;;3.42;2.67;;;;;;;;;;5099254;28;20192;-64
2023/10/11 07:23:35;;;;;;;3.20;2.90;;;;;;;;;;5098862;28;20239;-64
2023/10/11 07:28:50;;;;;;;3.88;2.90;;;;;;;;;;5097292;28;20187;-64
2023/10/11 07:31:17;;;;;;;3.00;2.60;;;;;;;;;;5097985;28;20231;-64
2023/10/11 07:33:49;;;;;;;2.78;2.53;;;;;;;;;;5098000;28;20262;-64
2023/10/11 07:36:18;;;;;;;3.28;2.83;;;;;;;;;;5098474;28;20678;-64
2023/10/11 07:38:54;;;;;;;4.00;2.67;;;;;;;;;;5098031;28;20518;-64
2023/10/11 07:41:23;;;;;;;3.83;2.95;;;;;;;;;;5097284;28;20213;-64
2023/10/11 07:43:51;;;;;;;2.83;2.50;;;;;;;;;;5097342;28;20599;-64
2023/10/11 07:46:19;;;;;;;3.03;2.72;;;;;;;;;;5097945;28;20708;-64
2023/10/11 07:48:48;;;;;;;3.42;2.65;;;;;;;;;;5097406;28;20210;-64
2023/10/11 07:51:15;;;;;;;3.45;2.65;;;;;;;;;;5098137;28;20498;-64
2023/10/11 07:53:45;;;;;;;4.38;2.80;;;;;;;;;;5097696;28;20211;-64
2023/10/11 07:56:15;;;;;;;3.33;2.90;;;;;;;;;;5098364;28;20214;-64
2023/10/11 07:58:46;;;;;;;3.53;2.55;;;;;;;;;;5098119;28;20204;-64
2023/10/11 08:01:24;;;;;;;3.55;2.75;;;;;;;;;;5098630;28;20207;-64
2023/10/11 08:03:53;;;;;;;3.17;2.60;;;;;;;;;;5098355;28;20239;-64
2023/10/11 08:06:24;;;;;;;4.03;2.90;;;;;;;;;;5098734;28;20204;-64
2023/10/11 08:08:59;;;;;;;3.17;2.70;;;;;;;;;;5097832;28;20429;-64
2023/10/11 08:11:28;;;;;;;3.13;2.80;;;;;;;;;;5097969;28;20308;-64
2023/10/11 08:14:01;;;;;;;2.90;2.63;;;;;;;;;;5098093;28;20714;-64
2023/10/11 08:16:33;;;;;;;3.38;2.50;;;;;;;;;;5097390;28;20203;-64
2023/10/11 08:19:01;;;;;;;3.10;2.60;;;;;;;;;;5097967;28;20211;-64
2023/10/11 08:21:30;;;;;;;3.88;2.58;;;;;;;;;;5100403;28;20222;-64
2023/10/11 08:23:59;;;;;;;4.20;2.40;;;;;;;;;;5119157;28;20220;-64
2023/10/11 08:26:32;;;;;;;3.08;2.50;;;;;;;;;;5118061;28;20203;-64
2023/10/11 08:29:14;;;;;;;3.92;3.22;;;;;;;;;;5117823;28;20207;-64
2023/10/11 08:31:44;;;;;;;3.80;3.03;;;;;;;;;;5118690;28;20234;-64
2023/10/11 08:34:14;;;;;;;3.22;2.83;;;;;;;;;;5117040;28;20235;-64
2023/10/11 08:36:43;;;;;;;3.17;2.78;;;;;;;;;;5117662;28;20268;-64
2023/10/11 08:39:13;;;;;;;3.35;2.80;;;;;;;;;;5117225;28;20725;-64
2023/10/11 08:41:43;;;;;;;3.63;2.80;;;;;;;;;;5117555;28;20536;-64
2023/10/11 08:44:20;;;;;;;4.25;2.70;;;;;;;;;;5117959;28;20301;-64
2023/10/11 08:46:50;;;;;;;5.13;2.85;;;;;;;;;;5117733;28;20194;-64
2023/10/11 08:49:18;;;;;;;3.15;2.67;;;;;;;;;;5114356;28;20302;-64
2023/10/11 08:51:48;;;;;;;4.78;3.13;;;;;;;;;;5111308;28;20335;-64
2023/10/11 08:54:25;;;;;;;4.15;3.17;;;;;;;;;;5117959;28;20236;-64
2023/10/11 08:56:54;;;;;;;4.07;3.08;;;;;;;;;;5117408;28;20207;-64
2023/10/11 08:59:25;;;;;;;4.15;3.00;;;;;;;;;;5116986;28;20202;-64
2023/10/11 09:01:53;;;;;;;3.75;2.65;;;;;;;;;;5117210;28;20207;-64
2023/10/11 09:04:26;;;;;;;3.10;2.72;;;;;;;;;;5118168;28;20211;-64
2023/10/11 09:06:57;;;;;;;3.65;2.80;;;;;;;;;;5118073;28;20202;-64
2023/10/11 09:09:39;;;;;;;3.50;2.38;;;;;;;;;;5117349;28;20267;-65
2023/10/11 09:14:59;;;;;;;3.33;2.92;;;;;;;;;;5114607;28;20195;-64
2023/10/11 09:17:27;;;;;;;4.93;3.17;;;;;;;;;;5117218;28;20256;-64
2023/10/11 09:19:58;;;;;;;3.85;2.70;;;;;;;;;;5117473;28;20294;-64
2023/10/11 09:22:25;;;;;;;3.72;3.10;;;;;;;;;;5115936;28;20750;-64
2023/10/11 09:25:21;;;;;;;3.85;3.17;;;;;;;;;;5116740;28;20213;-64
2023/10/11 09:27:50;;;;;;;4.90;3.28;;;;;;;;;;5117005;28;20226;-64
2023/10/11 09:30:20;;;;;;;3.78;2.72;;;;;;;;;;5116943;28;20199;-64
2023/10/11 09:32:51;;;;;;;3.45;2.85;;;;;;;;;;5117291;28;20260;-64
2023/10/11 09:35:26;;;;;;;4.45;2.90;;;;;;;;;;5116338;28;20285;-64
2023/10/11 09:37:54;;;;;;;4.68;3.45;;;;;;;;;;5116376;28;20202;-64
2023/10/11 09:40:29;;;;;;;3.55;2.92;;;;;;;;;;5116426;28;20206;-65
2023/10/11 09:43:00;;;;;;;4.18;3.20;;;;;;;;;;5116298;28;20244;-64
2023/10/11 09:45:30;;;;;;;5.15;3.38;;;;;;;;;;5116267;28;20214;-64
2023/10/11 09:47:58;;;;;;;4.30;3.28;;;;;;;;;;5115400;28;20254;-64
2023/10/11 09:50:26;;;;;;;6.28;3.40;;;;;;;;;;5115993;28;20606;-64
2023/10/11 09:52:55;;;;;;;4.57;3.25;;;;;;;;;;5116574;28;20203;-64
2023/10/11 09:55:31;;;;;;;5.85;3.72;;;;;;;;;;5115509;28;20210;-64
2023/10/11 09:58:04;;;;;;;5.07;3.25;;;;;;;;;;5116498;28;20280;-64
2023/10/11 10:00:37;;;;;;;4.18;3.00;;;;;;;;;;5115286;28;20214;-64
2023/10/11 10:03:12;;;;;;;4.97;3.42;;;;;;;;;;5116030;28;20494;-64
2023/10/11 10:06:00;;;;;;;5.30;3.60;;;;;;;;;;5116591;28;20234;-64
2023/10/11 10:08:29;;;;;;;4.95;3.55;;;;;;;;;;5114875;28;20218;-64
2023/10/11 10:10:56;;;;;;;5.65;3.50;;;;;;;;;;5115370;28;20317;-64
2023/10/11 10:13:25;;;;;;;4.80;3.35;;;;;;;;;;5114628;28;20203;-64
2023/10/11 10:15:53;;;;;;;4.60;3.47;;;;;;;;;;5114450;28;20290;-64
2023/10/11 10:18:22;;;;;;;6.40;3.50;;;;;;;;;;5114682;28;20207;-64
2023/10/11 10:21:01;;;;;;;5.18;3.20;;;;;;;;;;5115292;28;20209;-64
2023/10/11 10:23:37;;;;;;;3.78;3.15;;;;;;;;;;5115380;28;20295;-64
2023/10/11 10:26:38;;;;;;;6.43;3.38;;;;;;;;;;5114757;28;20262;-64
2023/10/11 10:29:14;;;;;;;4.32;3.30;;;;;;;;;;5115067;28;20290;-64
2023/10/11 10:32:00;;;;;;;6.05;3.92;;;;;;;;;;5114961;28;20218;-64
2023/10/11 10:34:29;;;;;;;5.03;3.47;;;;;;;;;;5114309;28;20203;-64
2023/10/11 10:37:01;;;;;;;4.90;3.38;;;;;;;;;;5115106;28;20238;-64
2023/10/11 10:39:46;;;;;;;5.40;3.83;;;;;;;;;;5115250;28;20202;-64
2023/10/11 10:42:17;;;;;;;4.80;3.40;;;;;;;;;;5114047;28;20198;-64
2023/10/11 10:44:54;;;;;;;5.60;3.60;;;;;;;;;;5114444;28;20557;-64
2023/10/11 10:47:26;;;;;;;5.90;3.58;;;;;;;;;;5115167;28;20290;-64
2023/10/11 10:49:55;;;;;;;4.35;3.63;;;;;;;;;;5114502;28;20263;-64
2023/10/11 10:52:26;;;;;;;4.05;3.00;;;;;;;;;;5115126;28;20637;-64
2023/10/11 10:55:01;;;;;;;5.80;3.65;;;;;;;;;;5115153;28;20239;-64
2023/10/11 10:57:28;;;;;;;3.47;3.03;;;;;;;;;;5115664;28;20198;-64
2023/10/11 10:59:56;;;;;;;4.55;3.35;;;;;;;;;;5115718;28;20210;-64
2023/10/11 11:02:24;;;;;;;4.70;3.40;;;;;;;;;;5115380;28;20223;-64
2023/10/11 11:04:50;;;;;;;4.65;3.65;;;;;;;;;;5115041;28;20202;-64
2023/10/11 11:07:25;;;;;;;4.78;3.28;;;;;;;;;;5115381;28;20263;-64
2023/10/11 11:09:54;;;;;;;6.22;3.38;;;;;;;;;;5114436;28;20217;-64
2023/10/11 11:12:28;;;;;;;4.43;3.20;;;;;;;;;;5115105;28;20223;-64
2023/10/11 11:14:58;;;;;;;6.35;3.80;;;;;;;;;;5114506;28;20571;-64
2023/10/11 11:17:26;;;;;;;6.60;3.40;;;;;;;;;;5115617;28;20662;-64
2023/10/11 11:20:12;;;;;;;7.95;3.45;;;;;;;;;;5114493;28;20199;-64
2023/10/11 11:22:39;;;;;;;5.32;3.40;;;;;;;;;;5115296;28;20239;-64
2023/10/11 11:25:16;;;;;;;3.90;3.08;;;;;;;;;;5114060;28;20627;-64
2023/10/11 11:27:44;;;;;;;5.82;3.22;;;;;;;;;;5113801;28;20199;-64
2023/10/11 11:30:29;;;;;;;4.85;3.50;;;;;;;;;;5113734;28;20426;-64
2023/10/11 11:32:57;;;;;;;5.28;3.30;;;;;;;;;;5115175;28;20526;-64
2023/10/11 11:35:29;;;;;;;5.30;3.72;;;;;;;;;;5113676;28;20203;-64
2023/10/11 11:38:02;;;;;;;5.00;3.53;;;;;;;;;;5113764;28;20565;-65
2023/10/11 11:40:30;;;;;;;5.28;3.38;;;;;;;;;;5114527;28;20260;-64
2023/10/11 11:43:03;;;;;;;5.15;3.60;;;;;;;;;;5115230;28;20230;-64
2023/10/11 11:45:35;;;;;;;5.18;3.33;;;;;;;;;;5114083;28;20306;-64
2023/10/11 11:48:05;;;;;;;5.80;3.67;;;;;;;;;;5117896;28;20230;-64
2023/10/11 11:50:33;;;;;;;4.57;3.28;;;;;;;;;;5118362;28;20485;-64
2023/10/11 11:53:01;;;;;;;3.60;3.20;;;;;;;;;;5118610;28;20296;-64
2023/10/11 11:55:28;;;;;;;5.28;3.67;;;;;;;;;;5118434;28;20206;-64
2023/10/11 11:57:55;;;;;;;5.70;3.45;;;;;;;;;;5117059;28;20202;-64
2023/10/11 12:00:39;;;;;;;5.15;3.58;;;;;;;;;;5117238;28;20316;-64
2023/10/11 12:03:08;;;;;;;4.97;3.13;;;;;;;;;;5117400;28;20197;-64
2023/10/11 12:05:40;;;;;;;4.05;3.30;;;;;;;;;;5118121;28;20203;-64
2023/10/11 12:08:08;;;;;;;3.88;2.92;;;;;;;;;;5117745;28;20201;-65
2023/10/11 12:10:36;;;;;;;5.78;3.50;;;;;;;;;;5117166;28;20199;-64
2023/10/11 12:13:07;;;;;;;6.13;3.58;;;;;;;;;;5116525;28;20230;-64
2023/10/11 12:15:35;;;;;;;4.53;3.35;;;;;;;;;;5117812;28;20202;-64
2023/10/11 12:18:05;;;;;;;6.18;3.42;;;;;;;;;;5117335;28;20246;-64
2023/10/11 12:20:35;;;;;;;3.80;2.88;;;;;;;;;;5118208;28;20307;-64
2023/10/11 12:23:08;;;;;;;4.10;3.20;;;;;;;;;;5118610;28;20223;-64
2023/10/11 12:25:39;;;;;;;5.25;3.42;;;;;;;;;;5117793;28;20644;-64
2023/10/11 12:28:08;;;;;;;6.13;3.50;;;;;;;;;;5117958;28;20198;-64
2023/10/11 12:30:36;;;;;;;5.22;3.30;;;;;;;;;;5116935;28;20614;-64
2023/10/11 12:33:06;;;;;;;5.22;3.40;;;;;;;;;;5117411;28;20235;-64
2023/10/11 12:35:40;;;;;;;5.13;3.40;;;;;;;;;;5117799;28;20202;-64
2023/10/11 12:38:12;;;;;;;4.22;3.38;;;;;;;;;;5117683;28;20493;-64
2023/10/11 12:40:40;;;;;;;4.13;3.53;;;;;;;;;;5112042;28;20203;-64
2023/10/11 12:43:08;;;;;;;4.63;3.47;;;;;;;;;;5114551;28;20203;-64
2023/10/11 12:45:37;;;;;;;4.35;3.42;;;;;;;;;;5117591;28;20297;-64
2023/10/11 12:48:06;;;;;;;4.72;3.10;;;;;;;;;;5117235;28;20203;-64
2023/10/11 12:50:37;;;;;;;5.50;3.55;;;;;;;;;;5116559;28;20829;-64
2023/10/11 12:53:10;;;;;;;6.13;3.72;;;;;;;;;;5116147;28;20309;-64
2023/10/11 12:55:41;;;;;;;4.85;3.20;;;;;;;;;;5116851;28;20213;-64
2023/10/11 12:58:11;;;;;;;5.40;3.60;;;;;;;;;;5116516;28;20203;-64
2023/10/11 13:00:47;;;;;;;4.75;3.42;;;;;;;;;;5116462;28;20268;-64
2023/10/11 13:03:25;;;;;;;7.20;3.90;;;;;;;;;;5115948;28;20195;-64
2023/10/11 13:05:53;;;;;;;6.57;3.53;;;;;;;;;;5115263;28;20264;-64
2023/10/11 13:08:25;;;;;;;7.63;3.78;;;;;;;;;;5114655;28;20214;-64
2023/10/11 13:10:54;;;;;;;4.93;3.33;;;;;;;;;;5115430;28;20295;-64
2023/10/11 13:13:22;;;;;;;5.53;3.25;;;;;;;;;;5115210;28;20582;-64
2023/10/11 13:16:00;;;;;;;4.95;2.95;;;;;;;;;;5117032;28;20297;-64
2023/10/11 13:18:28;;;;;;;4.82;3.08;;;;;;;;;;5115731;28;20229;-64
2023/10/11 13:20:56;;;;;;;4.35;3.20;;;;;;;;;;5115623;28;20214;-64
2023/10/11 13:23:30;;;;;;;5.00;3.40;;;;;;;;;;5116184;28;20330;-64
2023/10/11 13:25:59;;;;;;;4.55;3.30;;;;;;;;;;5115392;28;20202;-65
2023/10/11 13:28:28;;;;;;;4.35;3.00;;;;;;;;;;5115485;28;20203;-64
2023/10/11 13:30:56;;;;;;;6.72;3.28;;;;;;;;;;5114922;28;20202;-64
2023/10/11 13:33:23;;;;;;;4.70;2.90;;;;;;;;;;5114888;28;20564;-64
2023/10/11 13:35:51;;;;;;;4.88;2.90;;;;;;;;;;5108249;28;20233;-64
2023/10/11 13:38:19;;;;;;;4.75;3.42;;;;;;;;;;5117971;27;20589;-64
2023/10/11 13:40:50;;;;;;;4.32;3.17;;;;;;;;;;5120035;27;20195;-64
2023/10/11 13:43:19;;;;;;;5.18;3.03;;;;;;;;;;5114539;27;20264;-64
2023/10/11 13:45:56;;;;;;;3.83;3.35;;;;;;;;;;5115537;28;20249;-64
2023/10/11 13:48:27;;;;;;;4.75;3.13;;;;;;;;;;5115160;28;20549;-65
2023/10/11 13:50:56;;;;;;;4.13;2.92;;;;;;;;;;5114969;28;20294;-64
2023/10/11 13:53:24;;;;;;;4.00;3.28;;;;;;;;;;5115738;28;20253;-64
2023/10/11 13:55:54;;;;;;;5.53;3.35;;;;;;;;;;5115675;28;20512;-64
2023/10/11 13:58:21;;;;;;;5.50;3.35;;;;;;;;;;5113890;28;20685;-64
2023/10/11 14:01:24;;;;;;;4.95;3.17;;;;;;;;;;5114509;28;20206;-64
2023/10/11 14:03:53;;;;;;;5.15;3.30;;;;;;;;;;5113761;28;20201;-64
2023/10/11 14:06:41;;;;;;;5.85;3.40;;;;;;;;;;5114695;28;20242;-64
2023/10/11 14:09:16;;;;;;;4.93;3.17;;;;;;;;;;5114220;28;20306;-64
2023/10/11 14:11:47;;;;;;;4.47;3.10;;;;;;;;;;5114301;28;20220;-64
2023/10/11 14:14:20;;;;;;;3.85;3.20;;;;;;;;;;5115230;28;20275;-65
2023/10/11 14:16:48;;;;;;;4.30;3.30;;;;;;;;;;5115117;28;20202;-64
2023/10/11 14:19:17;;;;;;;4.93;3.22;;;;;;;;;;5114599;28;20420;-64
2023/10/11 14:21:47;;;;;;;5.05;3.38;;;;;;;;;;5114607;28;20310;-64
2023/10/11 14:24:15;;;;;;;6.35;3.10;;;;;;;;;;5115398;28;20203;-64
2023/10/11 14:26:44;;;;;;;5.00;3.28;;;;;;;;;;5115002;28;20213;-64
2023/10/11 14:29:13;;;;;;;4.75;3.33;;;;;;;;;;5115521;28;20725;-65
2023/10/11 14:31:42;;;;;;;4.95;3.53;;;;;;;;;;5114976;28;20218;-64
2023/10/11 14:34:09;;;;;;;5.65;3.30;;;;;;;;;;5114523;28;20243;-64
2023/10/11 14:36:37;;;;;;;4.47;3.30;;;;;;;;;;5114584;28;20214;-64
2023/10/11 14:39:17;;;;;;;4.38;3.03;;;;;;;;;;5114899;28;20218;-64
2023/10/11 14:41:45;;;;;;;3.67;2.65;;;;;;;;;;5114758;28;20285;-64
2023/10/11 14:44:14;;;;;;;4.38;2.80;;;;;;;;;;5114311;28;20207;-64
2023/10/11 14:46:42;;;;;;;4.20;3.45;;;;;;;;;;5115030;28;20290;-64
2023/10/11 14:49:11;;;;;;;3.63;2.78;;;;;;;;;;5114023;28;20537;-64
2023/10/11 14:51:39;;;;;;;3.85;3.10;;;;;;;;;;5114470;28;20574;-64
2023/10/11 14:54:07;;;;;;;3.70;3.17;;;;;;;;;;5115216;28;20287;-64
2023/10/11 14:56:37;;;;;;;6.07;3.40;;;;;;;;;;5115034;28;20210;-64
2023/10/11 14:59:04;;;;;;;3.55;2.88;;;;;;;;;;5114665;28;20207;-64
2023/10/11 15:01:34;;;;;;;4.13;3.25;;;;;;;;;;5114132;28;20293;-64
2023/10/11 15:04:09;;;;;;;5.07;3.30;;;;;;;;;;5114756;28;20290;-64
2023/10/11 15:06:37;;;;;;;5.53;3.22;;;;;;;;;;5113418;28;20202;-65
2023/10/11 15:09:08;;;;;;;4.13;3.15;;;;;;;;;;5113905;28;20323;-65
2023/10/11 15:11:36;;;;;;;4.57;3.28;;;;;;;;;;5108902;28;20612;-64
2023/10/11 15:14:07;;;;;;;5.25;3.15;;;;;;;;;;5111661;28;20223;-64
2023/10/11 15:16:36;;;;;;;3.95;3.05;;;;;;;;;;5114172;28;20207;-64
2023/10/11 15:19:04;;;;;;;5.50;3.20;;;;;;;;;;5113880;28;20203;-64
2023/10/11 15:21:32;;;;;;;3.47;2.75;;;;;;;;;;5116054;28;20600;-65
2023/10/11 15:23:59;;;;;;;4.97;3.25;;;;;;;;;;5119334;28;20199;-64
2023/10/11 15:26:27;;;;;;;4.10;3.20;;;;;;;;;;5118757;28;20199;-64
2023/10/11 15:28:55;;;;;;;4.57;3.30;;;;;;;;;;5118493;28;20267;-64
2023/10/11 15:31:22;;;;;;;4.30;2.80;;;;;;;;;;5118845;28;20210;-65
2023/10/11 15:33:51;;;;;;;4.03;2.88;;;;;;;;;;5118465;28;20235;-65